sensor_id;sensor_type;location;lat;lon;timestamp;temperature;humidity
63317;DHT22;49822;41.468;13.560;2022-07-01T05:22:34;22.90;66.50
63317;DHT22;49822;41.468;13.560;2022-07-01T05:25:01;22.90;66.70
63317;DHT22;49822;41.468;13.560;2022-07-01T05:27:31;22.90;67.80
63317;DHT22;49822;41.468;13.560;2022-07-01T05:29:59;23.00;67.00
63317;DHT22;49822;41.468;13.560;2022-07-01T05:32:27;23.10;66.50
63317;DHT22;49822;41.468;13.560;2022-07-01T05:34:55;23.30;65.60
63317;DHT22;49822;41.468;13.560;2022-07-01T05:37:23;23.40;65.60
63317;DHT22;49822;41.468;13.560;2022-07-01T05:39:51;23.60;65.40
63317;DHT22;49822;41.468;13.560;2022-07-01T05:42:19;23.70;64.70
63317;DHT22;49822;41.468;13.560;2022-07-01T05:44:46;23.80;64.10
63317;DHT22;49822;41.468;13.560;2022-07-01T05:47:14;24.00;63.10
63317;DHT22;49822;41.468;13.560;2022-07-01T05:49:41;24.20;62.00
63317;DHT22;49822;41.468;13.560;2022-07-01T05:52:09;24.40;62.40
63317;DHT22;49822;41.468;13.560;2022-07-01T05:54:36;24.60;61.40
63317;DHT22;49822;41.468;13.560;2022-07-01T05:57:04;24.80;59.90
63317;DHT22;49822;41.468;13.560;2022-07-01T05:59:35;25.00;59.20
63317;DHT22;49822;41.468;13.560;2022-07-01T06:02:03;25.30;60.50
63317;DHT22;49822;41.468;13.560;2022-07-01T06:04:31;25.50;60.10
63317;DHT22;49822;41.468;13.560;2022-07-01T06:06:59;25.60;60.30
63317;DHT22;49822;41.468;13.560;2022-07-01T06:09:27;25.70;59.90
63317;DHT22;49822;41.468;13.560;2022-07-01T06:11:55;25.80;59.50
63317;DHT22;49822;41.468;13.560;2022-07-01T06:14:22;25.80;60.40
63317;DHT22;49822;41.468;13.560;2022-07-01T06:16:51;25.80;60.00
63317;DHT22;49822;41.468;13.560;2022-07-01T06:19:19;25.60;60.60
63317;DHT22;49822;41.468;13.560;2022-07-01T06:21:47;25.50;61.80
63317;DHT22;49822;41.468;13.560;2022-07-01T06:24:14;25.40;61.90
63317;DHT22;49822;41.468;13.560;2022-07-01T06:26:42;25.30;62.30
63317;DHT22;49822;41.468;13.560;2022-07-01T06:29:09;25.40;62.20
63317;DHT22;49822;41.468;13.560;2022-07-01T06:31:36;25.50;61.40
63317;DHT22;49822;41.468;13.560;2022-07-01T06:34:04;25.60;61.20
63317;DHT22;49822;41.468;13.560;2022-07-01T06:36:31;25.80;60.80
63317;DHT22;49822;41.468;13.560;2022-07-01T06:39:00;26.00;60.10
63317;DHT22;49822;41.468;13.560;2022-07-01T06:41:28;26.10;59.40
63317;DHT22;49822;41.468;13.560;2022-07-01T06:43:58;26.20;59.10
63317;DHT22;49822;41.468;13.560;2022-07-01T06:46:27;26.10;59.20
63317;DHT22;49822;41.468;13.560;2022-07-01T06:48:55;26.00;59.00
63317;DHT22;49822;41.468;13.560;2022-07-01T06:51:24;26.00;58.90
63317;DHT22;49822;41.468;13.560;2022-07-01T06:53:52;26.00;59.10
63317;DHT22;49822;41.468;13.560;2022-07-01T06:56:19;26.00;59.10
63317;DHT22;49822;41.468;13.560;2022-07-01T06:58:47;26.10;59.10
63317;DHT22;49822;41.468;13.560;2022-07-01T07:01:15;26.10;59.50
63317;DHT22;49822;41.468;13.560;2022-07-01T07:03:42;26.10;58.70
63317;DHT22;49822;41.468;13.560;2022-07-01T07:06:10;26.10;57.90
63317;DHT22;49822;41.468;13.560;2022-07-01T07:08:37;26.00;58.90
63317;DHT22;49822;41.468;13.560;2022-07-01T07:11:05;26.00;58.00
63317;DHT22;49822;41.468;13.560;2022-07-01T07:13:36;26.00;58.80
63317;DHT22;49822;41.468;13.560;2022-07-01T07:16:04;26.20;58.30
63317;DHT22;49822;41.468;13.560;2022-07-01T07:18:31;26.50;57.60
63317;DHT22;49822;41.468;13.560;2022-07-01T07:20:59;26.80;56.80
63317;DHT22;49822;41.468;13.560;2022-07-01T07:23:27;27.00;55.70
63317;DHT22;49822;41.468;13.560;2022-07-01T07:25:55;27.20;55.50
63317;DHT22;49822;41.468;13.560;2022-07-01T07:28:23;27.30;55.30
63317;DHT22;49822;41.468;13.560;2022-07-01T07:30:51;27.50;54.70
63317;DHT22;49822;41.468;13.560;2022-07-01T07:33:19;27.60;54.00
63317;DHT22;49822;41.468;13.560;2022-07-01T07:35:46;27.80;53.80
63317;DHT22;49822;41.468;13.560;2022-07-01T07:38:14;27.70;54.00
63317;DHT22;49822;41.468;13.560;2022-07-01T07:40:42;27.70;53.80
63317;DHT22;49822;41.468;13.560;2022-07-01T07:43:09;27.70;54.40
63317;DHT22;49822;41.468;13.560;2022-07-01T07:45:36;27.80;54.20
63317;DHT22;49822;41.468;13.560;2022-07-01T07:48:04;27.90;53.80
63317;DHT22;49822;41.468;13.560;2022-07-01T07:50:32;27.90;53.40
63317;DHT22;49822;41.468;13.560;2022-07-01T07:53:01;27.90;52.60
63317;DHT22;49822;41.468;13.560;2022-07-01T07:55:29;28.10;53.10
63317;DHT22;49822;41.468;13.560;2022-07-01T07:57:58;28.10;53.70
63317;DHT22;49822;41.468;13.560;2022-07-01T08:00:26;28.30;53.30
63317;DHT22;49822;41.468;13.560;2022-07-01T08:02:55;28.50;52.00
63317;DHT22;49822;41.468;13.560;2022-07-01T08:05:35;28.70;51.40
63317;DHT22;49822;41.468;13.560;2022-07-01T08:08:06;28.90;50.80
63317;DHT22;49822;41.468;13.560;2022-07-01T08:10:34;28.80;49.50
63317;DHT22;49822;41.468;13.560;2022-07-01T08:13:02;28.70;50.00
63317;DHT22;49822;41.468;13.560;2022-07-01T08:15:32;28.90;51.10
63317;DHT22;49822;41.468;13.560;2022-07-01T08:18:00;29.10;50.50
63317;DHT22;49822;41.468;13.560;2022-07-01T08:20:28;29.30;49.50
63317;DHT22;49822;41.468;13.560;2022-07-01T08:22:56;29.50;49.90
63317;DHT22;49822;41.468;13.560;2022-07-01T08:25:23;29.50;48.70
63317;DHT22;49822;41.468;13.560;2022-07-01T08:28:03;29.70;48.50
63317;DHT22;49822;41.468;13.560;2022-07-01T08:30:32;29.90;48.00
63317;DHT22;49822;41.468;13.560;2022-07-01T08:33:00;29.90;47.60
63317;DHT22;49822;41.468;13.560;2022-07-01T08:35:28;29.90;47.30
63317;DHT22;49822;41.468;13.560;2022-07-01T08:37:57;29.90;48.10
63317;DHT22;49822;41.468;13.560;2022-07-01T08:40:29;30.10;47.60
63317;DHT22;49822;41.468;13.560;2022-07-01T08:42:59;30.20;47.80
63317;DHT22;49822;41.468;13.560;2022-07-01T08:45:29;30.30;48.10
63317;DHT22;49822;41.468;13.560;2022-07-01T08:47:58;30.50;46.70
63317;DHT22;49822;41.468;13.560;2022-07-01T08:50:31;30.70;47.70
63317;DHT22;49822;41.468;13.560;2022-07-01T08:53:01;30.50;47.40
63317;DHT22;49822;41.468;13.560;2022-07-01T08:55:29;30.60;47.90
63317;DHT22;49822;41.468;13.560;2022-07-01T08:57:58;30.70;46.20
63317;DHT22;49822;41.468;13.560;2022-07-01T09:00:30;31.00;45.70
63317;DHT22;49822;41.468;13.560;2022-07-01T09:03:01;31.10;46.50
63317;DHT22;49822;41.468;13.560;2022-07-01T09:05:31;31.20;46.10
63317;DHT22;49822;41.468;13.560;2022-07-01T09:08:03;31.20;45.30
63317;DHT22;49822;41.468;13.560;2022-07-01T09:10:33;31.10;45.00
63317;DHT22;49822;41.468;13.560;2022-07-01T09:13:05;31.00;44.30
63317;DHT22;49822;41.468;13.560;2022-07-01T09:15:35;31.20;43.90
63317;DHT22;49822;41.468;13.560;2022-07-01T09:18:12;31.30;42.90
63317;DHT22;49822;41.468;13.560;2022-07-01T09:20:42;31.20;43.50
63317;DHT22;49822;41.468;13.560;2022-07-01T09:23:17;31.40;44.00
63317;DHT22;49822;41.468;13.560;2022-07-01T09:25:50;31.70;42.90
63317;DHT22;49822;41.468;13.560;2022-07-01T09:28:23;31.80;43.20
63317;DHT22;49822;41.468;13.560;2022-07-01T09:30:54;31.80;42.60
63317;DHT22;49822;41.468;13.560;2022-07-01T09:33:24;31.70;43.00
63317;DHT22;49822;41.468;13.560;2022-07-01T09:35:53;31.60;43.20
63317;DHT22;49822;41.468;13.560;2022-07-01T09:38:23;31.70;43.40
63317;DHT22;49822;41.468;13.560;2022-07-01T09:41:03;32.00;43.60
63317;DHT22;49822;41.468;13.560;2022-07-01T09:43:32;32.30;42.80
63317;DHT22;49822;41.468;13.560;2022-07-01T09:46:03;32.70;41.90
63317;DHT22;49822;41.468;13.560;2022-07-01T09:51:04;32.80;41.10
63317;DHT22;49822;41.468;13.560;2022-07-01T09:53:37;32.80;40.90
63317;DHT22;49822;41.468;13.560;2022-07-01T09:56:05;32.80;41.20
63317;DHT22;49822;41.468;13.560;2022-07-01T09:58:33;32.70;42.20
63317;DHT22;49822;41.468;13.560;2022-07-01T10:01:02;33.00;41.60
63317;DHT22;49822;41.468;13.560;2022-07-01T10:03:32;33.30;40.40
63317;DHT22;49822;41.468;13.560;2022-07-01T10:14:22;33.00;40.90
63317;DHT22;49822;41.468;13.560;2022-07-01T10:16:49;33.20;40.30
63317;DHT22;49822;41.468;13.560;2022-07-01T10:19:28;33.50;40.70
63317;DHT22;49822;41.468;13.560;2022-07-01T10:22:01;33.70;39.40
63317;DHT22;49822;41.468;13.560;2022-07-01T10:24:28;33.60;40.10
63317;DHT22;49822;41.468;13.560;2022-07-01T10:27:01;33.90;39.50
63317;DHT22;49822;41.468;13.560;2022-07-01T10:29:36;33.80;39.00
63317;DHT22;49822;41.468;13.560;2022-07-01T10:32:09;33.90;40.20
63317;DHT22;49822;41.468;13.560;2022-07-01T10:34:40;33.90;38.00
63317;DHT22;49822;41.468;13.560;2022-07-01T10:37:11;33.80;37.80
63317;DHT22;49822;41.468;13.560;2022-07-01T10:40:02;33.50;38.50
63317;DHT22;49822;41.468;13.560;2022-07-01T10:42:56;33.60;36.80
63317;DHT22;49822;41.468;13.560;2022-07-01T10:45:45;33.10;36.90
63317;DHT22;49822;41.468;13.560;2022-07-01T10:48:22;33.10;37.40
63317;DHT22;49822;41.468;13.560;2022-07-01T10:50:50;33.20;37.10
63317;DHT22;49822;41.468;13.560;2022-07-01T10:53:22;33.10;38.10
63317;DHT22;49822;41.468;13.560;2022-07-01T10:55:53;33.20;38.20
63317;DHT22;49822;41.468;13.560;2022-07-01T10:58:39;33.30;37.80
63317;DHT22;49822;41.468;13.560;2022-07-01T11:01:08;33.40;37.10
63317;DHT22;49822;41.468;13.560;2022-07-01T11:03:37;33.40;37.00
63317;DHT22;49822;41.468;13.560;2022-07-01T11:06:07;33.40;36.00
63317;DHT22;49822;41.468;13.560;2022-07-01T11:08:35;33.70;36.30
63317;DHT22;49822;41.468;13.560;2022-07-01T11:11:03;33.60;36.30
63317;DHT22;49822;41.468;13.560;2022-07-01T11:13:34;33.70;35.70
63317;DHT22;49822;41.468;13.560;2022-07-01T11:16:03;33.40;35.30
63317;DHT22;49822;41.468;13.560;2022-07-01T11:18:31;33.40;36.50
63317;DHT22;49822;41.468;13.560;2022-07-01T11:21:08;33.80;37.10
63317;DHT22;49822;41.468;13.560;2022-07-01T11:23:36;33.80;35.90
63317;DHT22;49822;41.468;13.560;2022-07-01T11:26:22;33.60;36.20
63317;DHT22;49822;41.468;13.560;2022-07-01T11:28:50;33.70;35.40
63317;DHT22;49822;41.468;13.560;2022-07-01T11:31:29;33.80;36.70
63317;DHT22;49822;41.468;13.560;2022-07-01T11:33:57;34.00;35.70
63317;DHT22;49822;41.468;13.560;2022-07-01T11:36:25;34.10;36.40
63317;DHT22;49822;41.468;13.560;2022-07-01T11:39:11;34.20;35.30
63317;DHT22;49822;41.468;13.560;2022-07-01T11:42:05;34.10;35.60
63317;DHT22;49822;41.468;13.560;2022-07-01T11:44:40;34.00;35.40
63317;DHT22;49822;41.468;13.560;2022-07-01T11:47:24;33.90;35.50
63317;DHT22;49822;41.468;13.560;2022-07-01T11:49:52;33.80;35.30
63317;DHT22;49822;41.468;13.560;2022-07-01T11:52:21;33.80;35.40
63317;DHT22;49822;41.468;13.560;2022-07-01T11:54:54;33.60;36.00
63317;DHT22;49822;41.468;13.560;2022-07-01T11:57:42;33.60;35.70
63317;DHT22;49822;41.468;13.560;2022-07-01T12:00:13;33.40;36.60
63317;DHT22;49822;41.468;13.560;2022-07-01T12:02:50;33.30;36.30
63317;DHT22;49822;41.468;13.560;2022-07-01T12:05:20;33.00;36.60
63317;DHT22;49822;41.468;13.560;2022-07-01T12:07:48;33.00;36.70
63317;DHT22;49822;41.468;13.560;2022-07-01T12:10:16;33.10;36.90
63317;DHT22;49822;41.468;13.560;2022-07-01T12:12:43;33.10;36.50
63317;DHT22;49822;41.468;13.560;2022-07-01T12:15:14;33.00;36.20
63317;DHT22;49822;41.468;13.560;2022-07-01T12:17:42;33.10;36.30
63317;DHT22;49822;41.468;13.560;2022-07-01T12:20:09;33.00;37.20
63317;DHT22;49822;41.468;13.560;2022-07-01T12:22:37;33.00;37.30
63317;DHT22;49822;41.468;13.560;2022-07-01T12:25:11;33.00;36.20
63317;DHT22;49822;41.468;13.560;2022-07-01T12:27:40;32.90;36.90
63317;DHT22;49822;41.468;13.560;2022-07-01T12:30:10;33.00;36.20
63317;DHT22;49822;41.468;13.560;2022-07-01T12:32:39;33.10;35.80
63317;DHT22;49822;41.468;13.560;2022-07-01T12:35:08;33.00;36.40
63317;DHT22;49822;41.468;13.560;2022-07-01T12:37:54;32.80;36.70
63317;DHT22;49822;41.468;13.560;2022-07-01T12:40:24;32.60;37.20
63317;DHT22;49822;41.468;13.560;2022-07-01T12:42:52;32.50;38.10
63317;DHT22;49822;41.468;13.560;2022-07-01T12:45:24;32.40;38.00
63317;DHT22;49822;41.468;13.560;2022-07-01T12:47:55;32.50;38.20
63317;DHT22;49822;41.468;13.560;2022-07-01T12:50:25;32.50;37.10
63317;DHT22;49822;41.468;13.560;2022-07-01T12:53:11;32.80;37.10
63317;DHT22;49822;41.468;13.560;2022-07-01T12:55:41;32.50;37.90
63317;DHT22;49822;41.468;13.560;2022-07-01T12:58:11;32.30;38.00
63317;DHT22;49822;41.468;13.560;2022-07-01T13:00:42;32.40;38.40
63317;DHT22;49822;41.468;13.560;2022-07-01T13:03:10;32.30;38.90
63317;DHT22;49822;41.468;13.560;2022-07-01T13:05:39;32.20;38.70
63317;DHT22;49822;41.468;13.560;2022-07-01T13:08:08;32.00;40.00
63317;DHT22;49822;41.468;13.560;2022-07-01T13:10:35;31.70;40.80
63317;DHT22;49822;41.468;13.560;2022-07-01T13:13:04;31.70;40.20
63317;DHT22;49822;41.468;13.560;2022-07-01T13:15:31;31.80;40.40
63317;DHT22;49822;41.468;13.560;2022-07-01T13:17:59;31.60;40.50
63317;DHT22;49822;41.468;13.560;2022-07-01T13:20:27;31.40;39.90
63317;DHT22;49822;41.468;13.560;2022-07-01T13:22:54;31.60;40.30
63317;DHT22;49822;41.468;13.560;2022-07-01T13:25:22;31.50;39.90
63317;DHT22;49822;41.468;13.560;2022-07-01T13:27:50;31.30;40.50
63317;DHT22;49822;41.468;13.560;2022-07-01T13:33:41;30.70;41.00
63317;DHT22;49822;41.468;13.560;2022-07-01T13:36:09;30.50;41.70
63317;DHT22;49822;41.468;13.560;2022-07-01T13:38:39;30.50;41.20
63317;DHT22;49822;41.468;13.560;2022-07-01T13:41:07;30.60;41.20
63317;DHT22;49822;41.468;13.560;2022-07-01T13:43:34;30.60;42.00
63317;DHT22;49822;41.468;13.560;2022-07-01T13:46:02;30.50;41.50
63317;DHT22;49822;41.468;13.560;2022-07-01T13:48:30;30.30;43.70
63317;DHT22;49822;41.468;13.560;2022-07-01T13:50:58;29.90;43.00
63317;DHT22;49822;41.468;13.560;2022-07-01T13:53:25;30.00;41.60
63317;DHT22;49822;41.468;13.560;2022-07-01T13:55:53;30.00;41.30
63317;DHT22;49822;41.468;13.560;2022-07-01T13:58:21;30.10;42.10
63317;DHT22;49822;41.468;13.560;2022-07-01T14:00:48;30.00;42.20
63317;DHT22;49822;41.468;13.560;2022-07-01T14:03:16;30.10;41.60
63317;DHT22;49822;41.468;13.560;2022-07-01T14:05:44;30.00;42.90
63317;DHT22;49822;41.468;13.560;2022-07-01T14:08:11;30.10;42.00
63317;DHT22;49822;41.468;13.560;2022-07-01T14:10:41;30.30;40.20
63317;DHT22;49822;41.468;13.560;2022-07-01T14:13:09;30.30;40.40
63317;DHT22;49822;41.468;13.560;2022-07-01T14:15:37;30.20;41.00
63317;DHT22;49822;41.468;13.560;2022-07-01T14:18:06;30.30;38.20
63317;DHT22;49822;41.468;13.560;2022-07-01T14:20:35;30.30;39.20
63317;DHT22;49822;41.468;13.560;2022-07-01T14:23:03;30.30;38.90
63317;DHT22;49822;41.468;13.560;2022-07-01T14:25:30;30.10;38.50
63317;DHT22;49822;41.468;13.560;2022-07-01T14:27:58;30.10;37.50
63317;DHT22;49822;41.468;13.560;2022-07-01T14:30:25;30.00;36.70
63317;DHT22;49822;41.468;13.560;2022-07-01T14:32:52;30.00;36.50
63317;DHT22;49822;41.468;13.560;2022-07-01T14:35:20;30.00;36.90
63317;DHT22;49822;41.468;13.560;2022-07-01T14:37:49;30.10;37.20
63317;DHT22;49822;41.468;13.560;2022-07-01T14:40:17;30.00;37.20
63317;DHT22;49822;41.468;13.560;2022-07-01T14:42:46;30.00;37.00
63317;DHT22;49822;41.468;13.560;2022-07-01T14:45:13;30.00;36.80
63317;DHT22;49822;41.468;13.560;2022-07-01T14:47:41;30.00;37.30
63317;DHT22;49822;41.468;13.560;2022-07-01T14:50:10;29.90;37.30
63317;DHT22;49822;41.468;13.560;2022-07-01T14:52:38;30.00;37.50
63317;DHT22;49822;41.468;13.560;2022-07-01T14:55:06;30.00;37.10
63317;DHT22;49822;41.468;13.560;2022-07-01T14:57:35;30.10;36.70
63317;DHT22;49822;41.468;13.560;2022-07-01T15:00:08;30.30;36.60
63317;DHT22;49822;41.468;13.560;2022-07-01T15:02:37;30.50;36.80
63317;DHT22;49822;41.468;13.560;2022-07-01T15:05:07;30.90;36.10
63317;DHT22;49822;41.468;13.560;2022-07-01T15:07:34;31.20;35.70
63317;DHT22;49822;41.468;13.560;2022-07-01T15:10:01;31.40;37.80
63317;DHT22;49822;41.468;13.560;2022-07-01T15:12:31;31.60;38.50
63317;DHT22;49822;41.468;13.560;2022-07-01T15:14:59;31.50;39.30
63317;DHT22;49822;41.468;13.560;2022-07-01T15:17:26;31.70;39.10
63317;DHT22;49822;41.468;13.560;2022-07-01T15:19:54;31.70;38.50
63317;DHT22;49822;41.468;13.560;2022-07-01T15:22:21;31.70;38.20
63317;DHT22;49822;41.468;13.560;2022-07-01T15:24:50;31.60;37.70
63317;DHT22;49822;41.468;13.560;2022-07-01T15:27:18;31.70;37.70
63317;DHT22;49822;41.468;13.560;2022-07-01T15:29:48;31.50;36.80
63317;DHT22;49822;41.468;13.560;2022-07-01T15:32:17;31.50;36.60
63317;DHT22;49822;41.468;13.560;2022-07-01T15:34:45;31.50;38.20
63317;DHT22;49822;41.468;13.560;2022-07-01T15:37:13;31.60;38.30
63317;DHT22;49822;41.468;13.560;2022-07-01T15:39:40;31.80;37.90
63317;DHT22;49822;41.468;13.560;2022-07-01T15:42:08;31.90;37.70
63317;DHT22;49822;41.468;13.560;2022-07-01T15:44:35;32.10;37.70
63317;DHT22;49822;41.468;13.560;2022-07-01T15:47:04;32.50;39.10
63317;DHT22;49822;41.468;13.560;2022-07-01T15:49:51;32.90;39.00
63317;DHT22;49822;41.468;13.560;2022-07-01T15:52:18;32.80;39.80
63317;DHT22;49822;41.468;13.560;2022-07-01T15:54:46;32.90;40.50
63317;DHT22;49822;41.468;13.560;2022-07-01T15:57:13;33.10;39.70
63317;DHT22;49822;41.468;13.560;2022-07-01T15:59:41;33.20;39.70
63317;DHT22;49822;41.468;13.560;2022-07-01T16:02:11;33.40;40.80
63317;DHT22;49822;41.468;13.560;2022-07-01T16:04:40;33.50;41.60
63317;DHT22;49822;41.468;13.560;2022-07-01T16:07:14;33.30;42.70
63317;DHT22;49822;41.468;13.560;2022-07-01T16:09:45;33.30;42.70
63317;DHT22;49822;41.468;13.560;2022-07-01T16:12:21;33.30;42.70
63317;DHT22;49822;41.468;13.560;2022-07-01T16:14:52;33.30;42.50
63317;DHT22;49822;41.468;13.560;2022-07-01T16:17:24;33.40;42.50
63317;DHT22;49822;41.468;13.560;2022-07-01T16:19:53;33.50;42.50
63317;DHT22;49822;41.468;13.560;2022-07-01T16:22:25;33.50;41.70
63317;DHT22;49822;41.468;13.560;2022-07-01T16:24:54;33.30;40.50
63317;DHT22;49822;41.468;13.560;2022-07-01T16:27:23;33.00;41.30
63317;DHT22;49822;41.468;13.560;2022-07-01T16:29:51;33.00;42.00
63317;DHT22;49822;41.468;13.560;2022-07-01T16:32:20;33.00;41.50
63317;DHT22;49822;41.468;13.560;2022-07-01T16:34:48;32.80;41.50
63317;DHT22;49822;41.468;13.560;2022-07-01T16:37:17;32.80;40.50
63317;DHT22;49822;41.468;13.560;2022-07-01T16:39:51;32.80;40.60
63317;DHT22;49822;41.468;13.560;2022-07-01T16:42:23;32.80;40.90
63317;DHT22;49822;41.468;13.560;2022-07-01T16:45:04;32.80;41.50
63317;DHT22;49822;41.468;13.560;2022-07-01T16:47:34;32.90;41.40
63317;DHT22;49822;41.468;13.560;2022-07-01T16:50:08;32.80;40.40
63317;DHT22;49822;41.468;13.560;2022-07-01T16:52:44;32.80;40.40
63317;DHT22;49822;41.468;13.560;2022-07-01T16:55:18;32.70;40.60
63317;DHT22;49822;41.468;13.560;2022-07-01T16:57:50;32.60;41.30
63317;DHT22;49822;41.468;13.560;2022-07-01T17:00:26;32.50;41.70
63317;DHT22;49822;41.468;13.560;2022-07-01T17:02:53;32.40;41.80
63317;DHT22;49822;41.468;13.560;2022-07-01T17:05:23;32.40;42.50
63317;DHT22;49822;41.468;13.560;2022-07-01T17:07:54;32.20;43.50
63317;DHT22;49822;41.468;13.560;2022-07-01T17:10:23;32.20;43.20
63317;DHT22;49822;41.468;13.560;2022-07-01T17:12:53;31.90;42.60
63317;DHT22;49822;41.468;13.560;2022-07-01T17:15:22;31.60;43.40
63317;DHT22;49822;41.468;13.560;2022-07-01T17:17:50;31.10;43.10
63317;DHT22;49822;41.468;13.560;2022-07-01T17:20:18;30.60;39.20
63317;DHT22;49822;41.468;13.560;2022-07-01T17:23:03;30.40;40.90
63317;DHT22;49822;41.468;13.560;2022-07-01T17:25:41;30.30;39.20
63317;DHT22;49822;41.468;13.560;2022-07-01T17:28:40;30.30;39.60
63317;DHT22;49822;41.468;13.560;2022-07-01T17:33:52;30.00;39.50
63317;DHT22;49822;41.468;13.560;2022-07-01T17:36:25;29.90;39.20
63317;DHT22;49822;41.468;13.560;2022-07-01T17:39:05;29.80;39.50
63317;DHT22;49822;41.468;13.560;2022-07-01T17:41:59;29.70;39.70
63317;DHT22;49822;41.468;13.560;2022-07-01T17:44:26;29.60;39.10
63317;DHT22;49822;41.468;13.560;2022-07-01T17:46:55;29.50;39.50
63317;DHT22;49822;41.468;13.560;2022-07-01T17:49:29;29.50;39.40
63317;DHT22;49822;41.468;13.560;2022-07-01T17:52:00;29.50;39.80
63317;DHT22;49822;41.468;13.560;2022-07-01T17:54:31;29.40;39.70
63317;DHT22;49822;41.468;13.560;2022-07-01T17:56:59;29.30;40.00
63317;DHT22;49822;41.468;13.560;2022-07-01T17:59:28;29.20;40.30
63317;DHT22;49822;41.468;13.560;2022-07-01T18:02:04;29.20;40.30
63317;DHT22;49822;41.468;13.560;2022-07-01T18:04:32;29.10;39.70
63317;DHT22;49822;41.468;13.560;2022-07-01T18:07:02;29.10;39.30
63317;DHT22;49822;41.468;13.560;2022-07-01T18:09:29;29.10;39.20
63317;DHT22;49822;41.468;13.560;2022-07-01T18:14:46;28.90;39.30
63317;DHT22;49822;41.468;13.560;2022-07-01T18:20:36;28.90;39.00
63317;DHT22;49822;41.468;13.560;2022-07-01T18:23:26;28.90;38.70
63317;DHT22;49822;41.468;13.560;2022-07-01T18:26:00;28.90;39.00
63317;DHT22;49822;41.468;13.560;2022-07-01T18:28:34;28.70;38.60
63317;DHT22;49822;41.468;13.560;2022-07-01T18:31:06;28.60;39.10
63317;DHT22;49822;41.468;13.560;2022-07-01T18:33:54;28.60;39.50
63317;DHT22;49822;41.468;13.560;2022-07-01T18:36:32;28.50;39.80
63317;DHT22;49822;41.468;13.560;2022-07-01T18:39:00;28.50;40.20
63317;DHT22;49822;41.468;13.560;2022-07-01T18:41:30;28.50;40.30
63317;DHT22;49822;41.468;13.560;2022-07-01T18:43:58;28.50;40.30
63317;DHT22;49822;41.468;13.560;2022-07-01T18:46:26;28.50;40.40
63317;DHT22;49822;41.468;13.560;2022-07-01T18:48:53;28.30;40.60
63317;DHT22;49822;41.468;13.560;2022-07-01T18:51:21;28.10;41.40
63317;DHT22;49822;41.468;13.560;2022-07-01T18:53:49;28.10;41.60
63317;DHT22;49822;41.468;13.560;2022-07-01T18:56:17;28.00;41.80
63317;DHT22;49822;41.468;13.560;2022-07-01T18:58:45;28.00;42.00
63317;DHT22;49822;41.468;13.560;2022-07-01T19:01:12;28.00;42.00
63317;DHT22;49822;41.468;13.560;2022-07-01T19:03:40;28.10;42.20
63317;DHT22;49822;41.468;13.560;2022-07-01T19:06:07;28.00;42.40
63317;DHT22;49822;41.468;13.560;2022-07-01T19:08:38;28.00;42.40
63317;DHT22;49822;41.468;13.560;2022-07-01T19:11:06;28.10;42.10
63317;DHT22;49822;41.468;13.560;2022-07-01T19:13:33;28.10;42.30
63317;DHT22;49822;41.468;13.560;2022-07-01T19:16:01;28.10;41.80
63317;DHT22;49822;41.468;13.560;2022-07-01T19:18:29;28.20;41.80
63317;DHT22;49822;41.468;13.560;2022-07-01T19:20:56;28.20;41.90
63317;DHT22;49822;41.468;13.560;2022-07-01T19:23:24;28.10;42.20
63317;DHT22;49822;41.468;13.560;2022-07-01T19:25:52;27.80;42.10
63317;DHT22;49822;41.468;13.560;2022-07-01T19:28:19;27.80;42.30
63317;DHT22;49822;41.468;13.560;2022-07-01T19:30:48;27.70;42.60
63317;DHT22;49822;41.468;13.560;2022-07-01T19:33:18;27.50;43.20
63317;DHT22;49822;41.468;13.560;2022-07-01T19:35:45;27.50;42.90
63317;DHT22;49822;41.468;13.560;2022-07-01T19:38:12;27.50;43.20
63317;DHT22;49822;41.468;13.560;2022-07-01T19:40:40;27.60;43.60
63317;DHT22;49822;41.468;13.560;2022-07-01T19:43:08;27.70;44.00
63317;DHT22;49822;41.468;13.560;2022-07-01T19:45:35;27.50;44.30
63317;DHT22;49822;41.468;13.560;2022-07-01T19:48:03;27.40;44.70
63317;DHT22;49822;41.468;13.560;2022-07-01T19:50:31;27.20;45.30
63317;DHT22;49822;41.468;13.560;2022-07-01T19:53:00;27.20;45.50
63317;DHT22;49822;41.468;13.560;2022-07-01T19:55:27;27.10;45.40
63317;DHT22;49822;41.468;13.560;2022-07-01T19:57:55;26.90;45.90
63317;DHT22;49822;41.468;13.560;2022-07-01T20:00:22;26.80;45.80
63317;DHT22;49822;41.468;13.560;2022-07-01T20:02:52;26.70;46.20
63317;DHT22;49822;41.468;13.560;2022-07-01T20:05:20;26.60;46.20
63317;DHT22;49822;41.468;13.560;2022-07-01T20:07:48;26.70;46.30
63317;DHT22;49822;41.468;13.560;2022-07-01T20:10:16;26.60;46.40
63317;DHT22;49822;41.468;13.560;2022-07-01T20:12:43;26.50;47.10
63317;DHT22;49822;41.468;13.560;2022-07-01T20:15:12;26.40;47.10
63317;DHT22;49822;41.468;13.560;2022-07-01T20:17:39;25.80;47.50
63317;DHT22;49822;41.468;13.560;2022-07-01T20:20:08;25.60;47.70
63317;DHT22;49822;41.468;13.560;2022-07-01T20:22:37;25.30;48.20
63317;DHT22;49822;41.468;13.560;2022-07-01T20:25:07;25.00;49.50
63317;DHT22;49822;41.468;13.560;2022-07-01T20:27:37;24.90;49.80
63317;DHT22;49822;41.468;13.560;2022-07-01T20:30:07;25.10;50.10
63317;DHT22;49822;41.468;13.560;2022-07-01T20:32:37;25.40;49.10
63317;DHT22;49822;41.468;13.560;2022-07-01T20:35:07;25.60;48.80
63317;DHT22;49822;41.468;13.560;2022-07-01T20:37:36;25.70;48.40
63317;DHT22;49822;41.468;13.560;2022-07-01T20:40:04;25.50;49.40
63317;DHT22;49822;41.468;13.560;2022-07-01T20:42:43;24.30;52.00
63317;DHT22;49822;41.468;13.560;2022-07-01T20:45:11;23.90;52.70
63317;DHT22;49822;41.468;13.560;2022-07-01T20:47:39;23.80;53.20
63317;DHT22;49822;41.468;13.560;2022-07-01T20:50:09;23.80;53.20
63317;DHT22;49822;41.468;13.560;2022-07-01T20:52:38;24.00;52.60
63317;DHT22;49822;41.468;13.560;2022-07-01T20:55:08;24.20;52.00
63317;DHT22;49822;41.468;13.560;2022-07-01T20:57:36;24.50;52.00
63317;DHT22;49822;41.468;13.560;2022-07-01T21:00:07;24.70;51.70
63317;DHT22;49822;41.468;13.560;2022-07-01T21:02:34;24.80;51.30
63317;DHT22;49822;41.468;13.560;2022-07-01T21:05:13;25.00;51.00
63317;DHT22;49822;41.468;13.560;2022-07-01T21:07:42;25.20;50.80
63317;DHT22;49822;41.468;13.560;2022-07-01T21:10:09;25.30;50.50
63317;DHT22;49822;41.468;13.560;2022-07-01T21:12:37;25.00;51.10
63317;DHT22;49822;41.468;13.560;2022-07-01T21:15:06;24.40;52.10
63317;DHT22;49822;41.468;13.560;2022-07-01T21:17:33;24.40;52.20